createdAt,value
2022-08-02T00:00:59.425Z,43.22
2022-08-02T00:06:03.659Z,43.25
2022-08-02T00:11:06.604Z,43.60
2022-08-02T00:16:09.656Z,42.83
2022-08-02T00:21:13.931Z,46.63
2022-08-02T00:26:17.513Z,43.35
2022-08-02T00:31:20.425Z,42.85
2022-08-02T00:36:24.667Z,43.20
2022-08-02T00:41:27.607Z,42.50
2022-08-02T00:46:30.489Z,42.63
2022-08-02T00:51:34.823Z,42.33
2022-08-02T00:56:37.732Z,42.33
2022-08-02T01:01:55.852Z,43.00
2022-08-02T01:07:11.892Z,42.65
2022-08-02T01:12:16.401Z,42.85
2022-08-02T01:17:26.856Z,42.65
2022-08-02T01:23:00.998Z,42.88
2022-08-02T01:28:30.886Z,45.00
2022-08-02T01:33:40.819Z,42.55
2022-08-02T01:38:48.032Z,42.45
2022-08-02T01:43:56.547Z,42.45
2022-08-02T01:49:03.898Z,42.55
2022-08-02T01:54:13.207Z,42.13
2022-08-02T01:59:22.103Z,42.42
2022-08-02T02:04:27.597Z,42.95
2022-08-02T02:09:35.752Z,42.50
2022-08-02T02:14:55.668Z,42.65
2022-08-02T02:20:01.340Z,42.08
2022-08-02T02:25:06.479Z,42.83
2022-08-02T02:30:12.463Z,42.63
2022-08-02T02:35:18.451Z,42.40
2022-08-02T02:40:23.496Z,42.45
2022-08-02T02:45:29.299Z,42.38
2022-08-02T02:50:33.237Z,42.35
2022-08-02T02:55:36.579Z,42.47
2022-08-02T03:00:59.420Z,42.30
2022-08-02T03:06:02.450Z,43.08
2022-08-02T03:11:18.970Z,42.80
2022-08-02T03:16:23.363Z,42.35
2022-08-02T03:21:26.256Z,42.33
2022-08-02T03:26:29.700Z,42.47
2022-08-02T03:31:33.407Z,42.05
2022-08-02T03:36:39.905Z,42.60
2022-08-02T03:41:44.189Z,42.65
2022-08-02T03:46:47.358Z,42.67
2022-08-02T03:51:52.041Z,42.25
2022-08-02T03:56:55.091Z,42.63
2022-08-02T04:01:58.162Z,42.08
2022-08-02T04:07:07.411Z,42.60
2022-08-02T04:12:11.051Z,42.13
2022-08-02T04:17:16.227Z,41.88
2022-08-02T04:22:26.468Z,42.00
2022-08-02T04:27:51.078Z,42.08
2022-08-02T04:32:53.945Z,43.00
2022-08-02T04:38:09.080Z,42.17
2022-08-02T04:43:12.918Z,42.00
2022-08-02T04:48:15.880Z,42.42
2022-08-02T04:53:20.279Z,42.38
2022-08-02T04:58:39.849Z,41.75
2022-08-02T05:03:43.482Z,41.97
2022-08-02T05:08:53.248Z,42.00
2022-08-02T05:13:57.487Z,41.92
2022-08-02T05:19:02.032Z,42.22
2022-08-02T05:24:08.051Z,42.30
2022-08-02T05:29:11.176Z,43.35
2022-08-02T05:34:14.117Z,42.22
2022-08-02T05:39:18.702Z,42.50
2022-08-02T05:44:22.187Z,47.25
2022-08-02T05:49:25.153Z,42.45
2022-08-02T05:54:41.981Z,42.67
2022-08-02T05:59:53.740Z,42.67
2022-08-02T06:05:05.756Z,42.50
2022-08-02T06:10:13.250Z,42.42
2022-08-02T06:15:18.189Z,43.97
2022-08-02T06:20:21.876Z,43.47
2022-08-02T06:25:51.081Z,42.97
2022-08-02T06:30:50.295Z,43.15
2022-08-02T06:36:02.607Z,42.65
2022-08-02T06:41:09.540Z,42.92
2022-08-02T06:47:08.388Z,42.75
2022-08-02T06:51:38.214Z,42.88
2022-08-02T06:56:42.475Z,42.85
2022-08-02T07:01:45.434Z,43.22
2022-08-02T07:06:48.461Z,43.38
2022-08-02T07:11:52.803Z,44.13
2022-08-02T07:16:55.764Z,43.35
2022-08-02T07:22:00.681Z,43.67
2022-08-02T07:27:11.731Z,43.05
2022-08-02T07:32:16.072Z,43.28
2022-08-02T07:37:34.947Z,43.85
2022-08-02T07:42:44.110Z,44.50
2022-08-02T07:47:47.593Z,43.47
2022-08-02T07:52:57.633Z,43.95
2022-08-02T07:58:02.425Z,43.92
2022-08-02T08:03:06.287Z,43.42
2022-08-02T08:08:13.789Z,43.80
2022-08-02T08:13:21.542Z,44.55
2022-08-02T08:18:24.591Z,44.13
2022-08-02T08:23:27.536Z,43.78
2022-08-02T08:28:32.364Z,44.47
2022-08-02T08:33:35.414Z,44.65
2022-08-02T08:38:38.325Z,43.92
2022-08-02T08:43:42.698Z,44.10
2022-08-02T08:48:50.244Z,44.05
2022-08-02T08:53:55.550Z,44.58
2022-08-02T08:59:02.843Z,44.55
2022-08-02T09:04:05.959Z,44.10
2022-08-02T09:09:08.907Z,44.65
2022-08-02T09:14:26.476Z,44.13
2022-08-02T09:19:29.583Z,44.05
2022-08-02T09:24:42.890Z,44.65
2022-08-02T09:35:15.475Z,44.30
2022-08-02T09:40:37.268Z,44.95
2022-08-02T09:45:48.964Z,44.90
2022-08-02T09:51:03.764Z,44.78
2022-08-02T09:56:11.587Z,44.78
2022-08-02T10:01:37.135Z,44.95
2022-08-02T10:07:06.935Z,45.58
2022-08-02T10:12:13.143Z,46.33
2022-08-02T10:17:24.209Z,45.40
2022-08-02T10:22:29.841Z,45.47
2022-08-02T10:27:49.336Z,45.45
2022-08-02T10:32:58.794Z,45.58
2022-08-02T10:38:07.901Z,45.08
2022-08-02T10:43:14.919Z,45.85
2022-08-02T10:48:19.203Z,45.83
2022-08-02T10:53:24.805Z,46.13
2022-08-02T10:58:30.461Z,46.03
2022-08-02T11:03:46.121Z,46.20
2022-08-02T11:08:49.091Z,46.38
2022-08-02T11:14:01.377Z,46.38
2022-08-02T11:19:07.107Z,45.67
2022-08-02T11:24:31.219Z,45.65
2022-08-02T11:29:39.851Z,45.83
2022-08-02T11:34:46.632Z,45.90
2022-08-02T11:39:52.623Z,46.42
2022-08-02T11:44:56.974Z,46.17
2022-08-02T11:50:07.858Z,46.45
2022-08-02T11:55:13.902Z,46.28
2022-08-02T12:00:18.784Z,46.50
2022-08-02T12:05:44.773Z,46.03
2022-08-02T12:10:49.127Z,46.70
2022-08-02T12:15:52.163Z,46.67
2022-08-02T12:20:56.522Z,46.45
2022-08-02T12:26:04.678Z,46.47
2022-08-02T12:31:10.513Z,46.28
2022-08-02T12:36:18.366Z,45.63
2022-08-02T12:41:31.185Z,46.15
2022-08-02T12:46:35.719Z,46.55
2022-08-02T12:51:58.999Z,46.50
2022-08-02T12:57:12.543Z,45.92
2022-08-02T13:02:16.667Z,46.65
2022-08-02T13:07:21.531Z,46.50
2022-08-02T13:12:24.406Z,46.28
2022-08-02T13:17:27.569Z,46.65
2022-08-02T13:22:32.108Z,46.80
2022-08-02T13:27:37.895Z,46.60
2022-08-02T13:32:40.745Z,47.05
2022-08-02T13:37:45.451Z,46.70
2022-08-02T13:42:50.426Z,47.33
2022-08-02T13:48:04.150Z,46.70
2022-08-02T13:53:09.769Z,46.53
2022-08-02T13:58:14.687Z,46.28
2022-08-02T14:03:17.566Z,47.42
2022-08-02T14:08:23.054Z,46.10
2022-08-02T14:13:25.960Z,47.15
2022-08-02T14:18:28.857Z,45.90
2022-08-02T14:23:50.000Z,46.45
2022-08-02T14:28:53.836Z,46.40
2022-08-02T14:33:56.756Z,46.13
2022-08-02T14:39:01.865Z,46.00
2022-08-02T14:44:05.317Z,46.78
2022-08-02T14:49:09.581Z,46.25
2022-08-02T14:54:14.741Z,47.05
2022-08-02T14:59:17.703Z,46.40
2022-08-02T15:04:20.704Z,46.67
2022-08-02T15:09:24.973Z,46.70
2022-08-02T15:14:28.093Z,46.95
2022-08-02T15:19:57.830Z,46.35
2022-08-02T15:25:02.209Z,46.38
2022-08-02T15:30:06.155Z,46.53
2022-08-02T15:35:09.572Z,46.00
2022-08-02T15:40:14.340Z,46.40
2022-08-02T15:45:17.347Z,46.30
2022-08-02T15:50:20.936Z,46.35
2022-08-02T15:55:25.157Z,45.92
2022-08-02T16:00:29.863Z,46.88
2022-08-02T16:05:33.878Z,46.17
2022-08-02T16:10:38.131Z,46.17
2022-08-02T16:15:41.251Z,46.03
2022-08-02T16:20:44.186Z,46.85
2022-08-02T16:25:51.128Z,46.63
2022-08-02T16:31:09.915Z,46.35
2022-08-02T16:36:21.642Z,46.13
2022-08-02T16:41:51.749Z,46.42
2022-08-02T16:46:55.702Z,45.83
2022-08-02T16:51:58.643Z,46.70
2022-08-02T16:57:05.328Z,46.33
2022-08-02T17:02:11.289Z,46.30
2022-08-02T17:08:08.327Z,46.15
2022-08-02T17:12:40.464Z,46.20
2022-08-02T17:17:43.420Z,45.65
2022-08-02T17:22:47.269Z,46.45
2022-08-02T17:27:56.038Z,45.72
2022-08-02T17:32:59.594Z,45.60
2022-08-02T17:38:02.864Z,46.15
2022-08-02T17:43:14.510Z,46.05
2022-08-02T17:48:49.139Z,45.60
2022-08-02T17:53:52.085Z,47.80
2022-08-02T17:59:12.257Z,46.08
2022-08-02T18:04:27.609Z,45.80
2022-08-02T18:09:32.187Z,45.75
2022-08-02T18:14:36.463Z,46.55
2022-08-02T18:19:53.338Z,46.72
2022-08-02T18:25:00.478Z,45.60
2022-08-02T18:30:27.998Z,46.03
2022-08-02T18:35:31.503Z,46.40
2022-08-02T18:40:37.702Z,46.13
2022-08-02T18:46:07.245Z,46.60
2022-08-02T18:51:05.165Z,46.13
2022-08-02T18:56:09.718Z,46.15
2022-08-02T19:01:34.002Z,46.72
2022-08-02T19:06:38.546Z,46.05
2022-08-02T19:11:48.207Z,45.90
2022-08-02T19:16:55.746Z,46.38
2022-08-02T19:22:27.097Z,45.95
2022-08-02T19:27:32.849Z,45.95
2022-08-02T19:38:08.965Z,45.72
2022-08-02T19:55:59.908Z,46.33
2022-08-02T20:00:44.755Z,46.00
2022-08-02T20:05:50.193Z,45.97
2022-08-02T20:10:53.100Z,45.35
2022-08-02T20:15:57.296Z,45.22
2022-08-02T20:21:01.830Z,45.38
2022-08-02T20:26:06.252Z,45.22
2022-08-02T20:31:14.075Z,45.65
2022-08-02T20:36:20.781Z,45.65
2022-08-02T20:41:23.849Z,45.60
2022-08-02T20:46:40.239Z,46.30
2022-08-02T20:51:45.120Z,45.65
2022-08-02T20:56:48.048Z,45.70
2022-08-02T21:01:57.402Z,45.58
2022-08-02T21:07:01.958Z,45.83
2022-08-02T21:12:12.535Z,46.05
2022-08-02T21:17:22.324Z,48.35
2022-08-02T21:22:32.046Z,46.47
2022-08-02T21:32:57.830Z,45.25
2022-08-02T21:38:02.037Z,45.45
2022-08-02T21:43:05.490Z,45.17
2022-08-02T21:48:11.893Z,45.47
2022-08-02T21:53:18.944Z,45.95
2022-08-02T21:58:40.065Z,44.80
2022-08-02T22:03:43.559Z,45.28
2022-08-02T22:09:00.000Z,46.20
2022-08-02T22:14:03.143Z,45.33
2022-08-02T22:19:06.673Z,45.10
2022-08-02T22:24:12.855Z,45.08
2022-08-02T22:29:22.268Z,45.55
2022-08-02T22:34:37.212Z,45.08
2022-08-02T22:40:05.916Z,45.60
2022-08-02T22:45:12.543Z,45.47
2022-08-02T22:50:15.399Z,45.55
2022-08-02T22:55:21.455Z,45.00
2022-08-02T22:59:00.261Z,46.13
2022-08-02T22:59:12.689Z,45.45
2022-08-02T23:00:26.627Z,45.15
2022-08-02T23:05:29.742Z,45.45
2022-08-02T23:10:34.118Z,45.05
2022-08-02T23:15:53.449Z,44.75
2022-08-02T23:20:57.350Z,45.13
2022-08-02T23:26:01.574Z,44.90
2022-08-02T23:31:29.062Z,44.67
2022-08-02T23:36:40.851Z,45.08
2022-08-02T23:41:45.093Z,44.95
2022-08-02T23:47:00.280Z,45.08
2022-08-02T23:52:03.150Z,45.45
2022-08-02T23:57:20.362Z,45.22
